sensor_id;sensor_type;location;lat;lon;timestamp;P1;durP1;ratioP1;P2;durP2;ratioP2
75851;SDS011;64500;52.632;20.656;2022-11-20T00:01:08;45.40;;;22.70;;
75851;SDS011;64500;52.632;20.656;2022-11-20T00:03:37;43.40;;;22.80;;
75851;SDS011;64500;52.632;20.656;2022-11-20T00:06:05;47.00;;;21.70;;
75851;SDS011;64500;52.632;20.656;2022-11-20T00:08:34;39.00;;;21.40;;
75851;SDS011;64500;52.632;20.656;2022-11-20T00:11:07;43.60;;;22.90;;
75851;SDS011;64500;52.632;20.656;2022-11-20T00:13:36;41.30;;;22.70;;
75851;SDS011;64500;52.632;20.656;2022-11-20T00:16:04;39.80;;;22.10;;
75851;SDS011;64500;52.632;20.656;2022-11-20T00:18:33;42.60;;;23.00;;
75851;SDS011;64500;52.632;20.656;2022-11-20T00:21:02;42.80;;;22.40;;
75851;SDS011;64500;52.632;20.656;2022-11-20T00:23:31;41.10;;;22.50;;
75851;SDS011;64500;52.632;20.656;2022-11-20T00:26:08;44.10;;;22.20;;
75851;SDS011;64500;52.632;20.656;2022-11-20T00:28:36;49.70;;;24.70;;
75851;SDS011;64500;52.632;20.656;2022-11-20T00:31:04;55.10;;;26.10;;
75851;SDS011;64500;52.632;20.656;2022-11-20T00:33:33;45.80;;;22.60;;
75851;SDS011;64500;52.632;20.656;2022-11-20T00:36:05;53.90;;;24.60;;
75851;SDS011;64500;52.632;20.656;2022-11-20T00:38:33;45.50;;;23.10;;
75851;SDS011;64500;52.632;20.656;2022-11-20T00:41:03;37.80;;;20.40;;
75851;SDS011;64500;52.632;20.656;2022-11-20T00:43:33;48.00;;;25.20;;
75851;SDS011;64500;52.632;20.656;2022-11-20T00:46:01;41.90;;;23.40;;
75851;SDS011;64500;52.632;20.656;2022-11-20T00:48:36;41.90;;;22.20;;
75851;SDS011;64500;52.632;20.656;2022-11-20T00:51:03;49.50;;;24.60;;
75851;SDS011;64500;52.632;20.656;2022-11-20T00:53:30;44.20;;;24.00;;
75851;SDS011;64500;52.632;20.656;2022-11-20T00:56:05;44.40;;;22.00;;
75851;SDS011;64500;52.632;20.656;2022-11-20T00:58:35;47.30;;;23.80;;
75851;SDS011;64500;52.632;20.656;2022-11-20T01:01:10;48.70;;;25.60;;
75851;SDS011;64500;52.632;20.656;2022-11-20T01:04:04;43.00;;;22.30;;
75851;SDS011;64500;52.632;20.656;2022-11-20T01:06:36;47.30;;;22.70;;
75851;SDS011;64500;52.632;20.656;2022-11-20T01:09:07;43.10;;;22.70;;
75851;SDS011;64500;52.632;20.656;2022-11-20T01:11:40;44.80;;;23.80;;
75851;SDS011;64500;52.632;20.656;2022-11-20T01:14:10;50.90;;;25.60;;
75851;SDS011;64500;52.632;20.656;2022-11-20T01:16:40;42.30;;;22.30;;
75851;SDS011;64500;52.632;20.656;2022-11-20T01:19:10;46.90;;;22.50;;
75851;SDS011;64500;52.632;20.656;2022-11-20T01:21:40;46.10;;;24.50;;
75851;SDS011;64500;52.632;20.656;2022-11-20T01:24:14;44.30;;;22.70;;
75851;SDS011;64500;52.632;20.656;2022-11-20T01:26:43;43.20;;;22.60;;
75851;SDS011;64500;52.632;20.656;2022-11-20T01:29:13;49.30;;;23.90;;
75851;SDS011;64500;52.632;20.656;2022-11-20T01:31:41;45.60;;;23.60;;
75851;SDS011;64500;52.632;20.656;2022-11-20T01:34:10;46.30;;;24.40;;
75851;SDS011;64500;52.632;20.656;2022-11-20T01:36:38;47.20;;;23.70;;
75851;SDS011;64500;52.632;20.656;2022-11-20T01:39:10;54.10;;;25.90;;
75851;SDS011;64500;52.632;20.656;2022-11-20T01:41:38;47.30;;;24.90;;
75851;SDS011;64500;52.632;20.656;2022-11-20T01:47:38;46.30;;;23.50;;
75851;SDS011;64500;52.632;20.656;2022-11-20T01:50:11;46.10;;;24.40;;
75851;SDS011;64500;52.632;20.656;2022-11-20T01:52:48;51.50;;;27.00;;
75851;SDS011;64500;52.632;20.656;2022-11-20T01:55:24;55.90;;;26.20;;
75851;SDS011;64500;52.632;20.656;2022-11-20T01:57:53;46.80;;;25.00;;
75851;SDS011;64500;52.632;20.656;2022-11-20T02:00:21;49.40;;;25.90;;
75851;SDS011;64500;52.632;20.656;2022-11-20T02:02:52;52.10;;;27.30;;
75851;SDS011;64500;52.632;20.656;2022-11-20T02:05:26;52.10;;;25.10;;
75851;SDS011;64500;52.632;20.656;2022-11-20T02:08:06;51.30;;;25.30;;
75851;SDS011;64500;52.632;20.656;2022-11-20T02:10:33;58.30;;;26.90;;
75851;SDS011;64500;52.632;20.656;2022-11-20T02:13:00;54.50;;;28.60;;
75851;SDS011;64500;52.632;20.656;2022-11-20T02:15:46;48.20;;;23.80;;
75851;SDS011;64500;52.632;20.656;2022-11-20T02:18:15;51.70;;;25.00;;
75851;SDS011;64500;52.632;20.656;2022-11-20T02:20:44;55.20;;;26.40;;
75851;SDS011;64500;52.632;20.656;2022-11-20T02:25:58;52.20;;;25.50;;
75851;SDS011;64500;52.632;20.656;2022-11-20T02:28:29;58.50;;;28.60;;
75851;SDS011;64500;52.632;20.656;2022-11-20T02:30:56;51.50;;;26.70;;
75851;SDS011;64500;52.632;20.656;2022-11-20T02:33:23;57.00;;;27.10;;
75851;SDS011;64500;52.632;20.656;2022-11-20T02:35:50;49.60;;;25.40;;
75851;SDS011;64500;52.632;20.656;2022-11-20T02:38:17;48.50;;;25.20;;
75851;SDS011;64500;52.632;20.656;2022-11-20T02:40:44;54.40;;;27.30;;
75851;SDS011;64500;52.632;20.656;2022-11-20T02:43:11;51.20;;;24.10;;
75851;SDS011;64500;52.632;20.656;2022-11-20T02:45:38;53.70;;;25.50;;
75851;SDS011;64500;52.632;20.656;2022-11-20T02:48:05;53.60;;;25.90;;
75851;SDS011;64500;52.632;20.656;2022-11-20T02:50:36;52.40;;;28.10;;
75851;SDS011;64500;52.632;20.656;2022-11-20T02:53:04;54.00;;;26.20;;
75851;SDS011;64500;52.632;20.656;2022-11-20T02:55:30;50.20;;;25.00;;
75851;SDS011;64500;52.632;20.656;2022-11-20T02:57:58;51.50;;;25.30;;
75851;SDS011;64500;52.632;20.656;2022-11-20T03:00:30;47.50;;;23.70;;
75851;SDS011;64500;52.632;20.656;2022-11-20T03:02:58;50.90;;;27.10;;
75851;SDS011;64500;52.632;20.656;2022-11-20T03:05:25;42.30;;;21.70;;
75851;SDS011;64500;52.632;20.656;2022-11-20T03:07:51;52.00;;;25.10;;
75851;SDS011;64500;52.632;20.656;2022-11-20T03:10:20;48.40;;;26.10;;
75851;SDS011;64500;52.632;20.656;2022-11-20T03:12:47;48.50;;;24.90;;
75851;SDS011;64500;52.632;20.656;2022-11-20T03:15:13;52.90;;;25.30;;
75851;SDS011;64500;52.632;20.656;2022-11-20T03:17:40;49.60;;;24.30;;
75851;SDS011;64500;52.632;20.656;2022-11-20T03:20:08;46.10;;;24.00;;
75851;SDS011;64500;52.632;20.656;2022-11-20T03:22:35;52.80;;;25.90;;
75851;SDS011;64500;52.632;20.656;2022-11-20T03:25:02;46.90;;;24.00;;
75851;SDS011;64500;52.632;20.656;2022-11-20T03:27:33;48.10;;;23.50;;
75851;SDS011;64500;52.632;20.656;2022-11-20T03:30:01;44.30;;;23.00;;
75851;SDS011;64500;52.632;20.656;2022-11-20T03:32:28;45.80;;;24.00;;
75851;SDS011;64500;52.632;20.656;2022-11-20T03:34:55;48.70;;;25.00;;
75851;SDS011;64500;52.632;20.656;2022-11-20T03:37:21;44.50;;;23.40;;
75851;SDS011;64500;52.632;20.656;2022-11-20T03:39:48;50.40;;;25.00;;
75851;SDS011;64500;52.632;20.656;2022-11-20T03:42:15;47.90;;;23.80;;
75851;SDS011;64500;52.632;20.656;2022-11-20T03:45:01;43.30;;;20.60;;
75851;SDS011;64500;52.632;20.656;2022-11-20T03:47:28;47.70;;;25.20;;
75851;SDS011;64500;52.632;20.656;2022-11-20T03:49:55;42.70;;;23.70;;
75851;SDS011;64500;52.632;20.656;2022-11-20T03:52:22;47.70;;;24.00;;
75851;SDS011;64500;52.632;20.656;2022-11-20T03:54:49;42.80;;;22.90;;
75851;SDS011;64500;52.632;20.656;2022-11-20T03:57:16;48.20;;;23.10;;
75851;SDS011;64500;52.632;20.656;2022-11-20T03:59:44;40.20;;;21.30;;
75851;SDS011;64500;52.632;20.656;2022-11-20T04:02:11;46.90;;;23.90;;
75851;SDS011;64500;52.632;20.656;2022-11-20T04:04:38;38.40;;;21.00;;
75851;SDS011;64500;52.632;20.656;2022-11-20T04:07:05;41.20;;;21.90;;
75851;SDS011;64500;52.632;20.656;2022-11-20T04:09:31;43.10;;;22.70;;
75851;SDS011;64500;52.632;20.656;2022-11-20T04:11:58;41.50;;;21.40;;
75851;SDS011;64500;52.632;20.656;2022-11-20T04:14:25;45.70;;;22.90;;
75851;SDS011;64500;52.632;20.656;2022-11-20T04:16:52;43.30;;;21.90;;
75851;SDS011;64500;52.632;20.656;2022-11-20T04:19:19;45.20;;;21.40;;
75851;SDS011;64500;52.632;20.656;2022-11-20T04:21:45;43.60;;;22.60;;
75851;SDS011;64500;52.632;20.656;2022-11-20T04:24:12;42.50;;;21.10;;
75851;SDS011;64500;52.632;20.656;2022-11-20T04:26:40;46.30;;;24.30;;
75851;SDS011;64500;52.632;20.656;2022-11-20T04:29:10;46.70;;;23.70;;
75851;SDS011;64500;52.632;20.656;2022-11-20T04:31:38;51.40;;;25.60;;
75851;SDS011;64500;52.632;20.656;2022-11-20T04:34:05;41.00;;;21.70;;
75851;SDS011;64500;52.632;20.656;2022-11-20T04:36:33;45.00;;;23.10;;
75851;SDS011;64500;52.632;20.656;2022-11-20T04:39:02;47.60;;;25.00;;
75851;SDS011;64500;52.632;20.656;2022-11-20T04:41:31;44.10;;;22.90;;
75851;SDS011;64500;52.632;20.656;2022-11-20T04:44:01;51.40;;;26.10;;
75851;SDS011;64500;52.632;20.656;2022-11-20T04:46:31;43.80;;;24.20;;
75851;SDS011;64500;52.632;20.656;2022-11-20T04:49:02;43.50;;;23.80;;
75851;SDS011;64500;52.632;20.656;2022-11-20T04:51:30;47.40;;;24.00;;
75851;SDS011;64500;52.632;20.656;2022-11-20T04:53:57;43.10;;;23.30;;
75851;SDS011;64500;52.632;20.656;2022-11-20T04:56:24;39.20;;;20.90;;
75851;SDS011;64500;52.632;20.656;2022-11-20T04:58:51;37.90;;;19.40;;
75851;SDS011;64500;52.632;20.656;2022-11-20T05:01:19;44.30;;;22.40;;
75851;SDS011;64500;52.632;20.656;2022-11-20T05:03:48;45.60;;;23.60;;
75851;SDS011;64500;52.632;20.656;2022-11-20T05:06:16;40.20;;;21.30;;
75851;SDS011;64500;52.632;20.656;2022-11-20T05:08:44;42.50;;;21.40;;
75851;SDS011;64500;52.632;20.656;2022-11-20T05:11:15;45.80;;;22.90;;
75851;SDS011;64500;52.632;20.656;2022-11-20T05:13:44;36.90;;;20.30;;
75851;SDS011;64500;52.632;20.656;2022-11-20T05:16:12;37.70;;;20.20;;
75851;SDS011;64500;52.632;20.656;2022-11-20T05:18:41;43.30;;;21.70;;
75851;SDS011;64500;52.632;20.656;2022-11-20T05:21:09;40.60;;;21.50;;
75851;SDS011;64500;52.632;20.656;2022-11-20T05:23:36;38.30;;;20.60;;
75851;SDS011;64500;52.632;20.656;2022-11-20T05:26:05;46.90;;;24.00;;
75851;SDS011;64500;52.632;20.656;2022-11-20T05:28:33;43.80;;;22.60;;
75851;SDS011;64500;52.632;20.656;2022-11-20T05:31:07;46.60;;;23.30;;
75851;SDS011;64500;52.632;20.656;2022-11-20T05:33:36;41.20;;;22.00;;
75851;SDS011;64500;52.632;20.656;2022-11-20T05:36:07;41.00;;;21.70;;
75851;SDS011;64500;52.632;20.656;2022-11-20T05:38:35;40.10;;;21.50;;
75851;SDS011;64500;52.632;20.656;2022-11-20T05:41:10;44.40;;;23.50;;
75851;SDS011;64500;52.632;20.656;2022-11-20T05:43:42;42.10;;;23.00;;
75851;SDS011;64500;52.632;20.656;2022-11-20T05:46:12;45.30;;;23.30;;
75851;SDS011;64500;52.632;20.656;2022-11-20T05:48:41;45.20;;;24.00;;
75851;SDS011;64500;52.632;20.656;2022-11-20T05:51:10;49.50;;;23.80;;
75851;SDS011;64500;52.632;20.656;2022-11-20T05:53:39;47.40;;;24.20;;
75851;SDS011;64500;52.632;20.656;2022-11-20T05:56:08;44.50;;;22.20;;
75851;SDS011;64500;52.632;20.656;2022-11-20T05:58:37;39.80;;;21.50;;
75851;SDS011;64500;52.632;20.656;2022-11-20T06:06:05;44.20;;;22.70;;
75851;SDS011;64500;52.632;20.656;2022-11-20T06:08:33;39.90;;;21.10;;
75851;SDS011;64500;52.632;20.656;2022-11-20T06:11:04;43.60;;;23.50;;
75851;SDS011;64500;52.632;20.656;2022-11-20T06:13:33;47.90;;;24.10;;
75851;SDS011;64500;52.632;20.656;2022-11-20T06:16:00;37.80;;;21.40;;
75851;SDS011;64500;52.632;20.656;2022-11-20T06:18:28;43.80;;;24.70;;
75851;SDS011;64500;52.632;20.656;2022-11-20T06:21:03;47.30;;;22.80;;
75851;SDS011;64500;52.632;20.656;2022-11-20T06:23:32;46.50;;;24.80;;
75851;SDS011;64500;52.632;20.656;2022-11-20T06:26:04;53.70;;;26.60;;
75851;SDS011;64500;52.632;20.656;2022-11-20T06:28:42;48.90;;;24.80;;
75851;SDS011;64500;52.632;20.656;2022-11-20T06:31:10;52.10;;;25.90;;
75851;SDS011;64500;52.632;20.656;2022-11-20T06:33:40;46.50;;;25.60;;
75851;SDS011;64500;52.632;20.656;2022-11-20T06:36:07;48.10;;;25.40;;
75851;SDS011;64500;52.632;20.656;2022-11-20T06:38:37;46.60;;;24.10;;
75851;SDS011;64500;52.632;20.656;2022-11-20T06:41:11;43.00;;;22.00;;
75851;SDS011;64500;52.632;20.656;2022-11-20T06:43:40;46.50;;;24.00;;
75851;SDS011;64500;52.632;20.656;2022-11-20T06:46:08;47.20;;;24.40;;
75851;SDS011;64500;52.632;20.656;2022-11-20T06:48:36;47.20;;;23.00;;
75851;SDS011;64500;52.632;20.656;2022-11-20T06:51:04;45.10;;;22.60;;
75851;SDS011;64500;52.632;20.656;2022-11-20T06:53:33;49.40;;;26.10;;
75851;SDS011;64500;52.632;20.656;2022-11-20T06:56:00;51.20;;;25.50;;
75851;SDS011;64500;52.632;20.656;2022-11-20T06:58:28;53.10;;;27.00;;
75851;SDS011;64500;52.632;20.656;2022-11-20T07:01:00;45.10;;;23.90;;
75851;SDS011;64500;52.632;20.656;2022-11-20T07:03:29;54.10;;;26.60;;
75851;SDS011;64500;52.632;20.656;2022-11-20T07:05:57;50.60;;;25.70;;
75851;SDS011;64500;52.632;20.656;2022-11-20T07:08:26;45.90;;;24.70;;
75851;SDS011;64500;52.632;20.656;2022-11-20T07:10:56;47.90;;;25.90;;
75851;SDS011;64500;52.632;20.656;2022-11-20T07:13:28;48.40;;;24.10;;
75851;SDS011;64500;52.632;20.656;2022-11-20T07:15:59;47.80;;;24.60;;
75851;SDS011;64500;52.632;20.656;2022-11-20T07:18:27;52.80;;;27.30;;
75851;SDS011;64500;52.632;20.656;2022-11-20T07:20:54;50.10;;;24.70;;
75851;SDS011;64500;52.632;20.656;2022-11-20T07:23:21;56.20;;;25.40;;
75851;SDS011;64500;52.632;20.656;2022-11-20T07:25:49;51.50;;;24.40;;
75851;SDS011;64500;52.632;20.656;2022-11-20T07:28:16;47.90;;;24.70;;
75851;SDS011;64500;52.632;20.656;2022-11-20T07:30:48;48.50;;;24.30;;
75851;SDS011;64500;52.632;20.656;2022-11-20T07:33:19;55.00;;;25.60;;
75851;SDS011;64500;52.632;20.656;2022-11-20T07:35:47;53.70;;;26.70;;
75851;SDS011;64500;52.632;20.656;2022-11-20T07:38:14;52.40;;;27.30;;
75851;SDS011;64500;52.632;20.656;2022-11-20T07:40:41;51.60;;;26.30;;
75851;SDS011;64500;52.632;20.656;2022-11-20T07:43:08;60.70;;;29.40;;
75851;SDS011;64500;52.632;20.656;2022-11-20T07:45:35;47.90;;;25.20;;
75851;SDS011;64500;52.632;20.656;2022-11-20T07:48:02;53.40;;;27.50;;
75851;SDS011;64500;52.632;20.656;2022-11-20T07:50:29;55.00;;;28.80;;
75851;SDS011;64500;52.632;20.656;2022-11-20T07:53:05;57.20;;;28.90;;
75851;SDS011;64500;52.632;20.656;2022-11-20T07:55:32;52.00;;;26.40;;
75851;SDS011;64500;52.632;20.656;2022-11-20T07:57:59;54.30;;;25.90;;
75851;SDS011;64500;52.632;20.656;2022-11-20T08:00:27;53.30;;;26.80;;
75851;SDS011;64500;52.632;20.656;2022-11-20T08:02:54;52.00;;;26.00;;
75851;SDS011;64500;52.632;20.656;2022-11-20T08:05:21;52.90;;;27.50;;
75851;SDS011;64500;52.632;20.656;2022-11-20T08:07:48;57.50;;;27.60;;
75851;SDS011;64500;52.632;20.656;2022-11-20T08:10:15;56.80;;;28.00;;
75851;SDS011;64500;52.632;20.656;2022-11-20T08:12:46;51.00;;;27.90;;
75851;SDS011;64500;52.632;20.656;2022-11-20T08:15:33;51.80;;;27.20;;
75851;SDS011;64500;52.632;20.656;2022-11-20T08:18:10;60.90;;;28.60;;
75851;SDS011;64500;52.632;20.656;2022-11-20T08:20:38;53.80;;;27.90;;
75851;SDS011;64500;52.632;20.656;2022-11-20T08:23:06;56.20;;;29.20;;
75851;SDS011;64500;52.632;20.656;2022-11-20T08:25:35;51.60;;;29.50;;
75851;SDS011;64500;52.632;20.656;2022-11-20T08:28:03;55.60;;;27.60;;
75851;SDS011;64500;52.632;20.656;2022-11-20T08:30:33;60.30;;;30.30;;
75851;SDS011;64500;52.632;20.656;2022-11-20T08:33:01;62.30;;;28.60;;
75851;SDS011;64500;52.632;20.656;2022-11-20T08:35:37;53.20;;;28.40;;
75851;SDS011;64500;52.632;20.656;2022-11-20T08:38:05;53.10;;;27.00;;
75851;SDS011;64500;52.632;20.656;2022-11-20T08:40:34;54.10;;;28.40;;
75851;SDS011;64500;52.632;20.656;2022-11-20T08:43:01;56.20;;;29.00;;
75851;SDS011;64500;52.632;20.656;2022-11-20T08:45:28;55.30;;;27.80;;
75851;SDS011;64500;52.632;20.656;2022-11-20T08:47:59;59.80;;;31.50;;
75851;SDS011;64500;52.632;20.656;2022-11-20T08:50:26;60.20;;;29.30;;
75851;SDS011;64500;52.632;20.656;2022-11-20T08:52:53;53.30;;;27.30;;
75851;SDS011;64500;52.632;20.656;2022-11-20T08:55:20;56.80;;;29.50;;
75851;SDS011;64500;52.632;20.656;2022-11-20T08:57:47;58.10;;;28.30;;
75851;SDS011;64500;52.632;20.656;2022-11-20T09:00:14;48.10;;;26.30;;
75851;SDS011;64500;52.632;20.656;2022-11-20T09:02:42;52.10;;;27.50;;
75851;SDS011;64500;52.632;20.656;2022-11-20T09:05:09;52.60;;;26.80;;
75851;SDS011;64500;52.632;20.656;2022-11-20T09:07:36;52.20;;;27.90;;
75851;SDS011;64500;52.632;20.656;2022-11-20T09:10:03;56.20;;;27.60;;
75851;SDS011;64500;52.632;20.656;2022-11-20T09:12:31;65.00;;;31.00;;
75851;SDS011;64500;52.632;20.656;2022-11-20T09:14:58;59.60;;;28.30;;
75851;SDS011;64500;52.632;20.656;2022-11-20T09:17:25;54.00;;;27.80;;
75851;SDS011;64500;52.632;20.656;2022-11-20T09:19:52;50.70;;;25.90;;
75851;SDS011;64500;52.632;20.656;2022-11-20T09:22:19;49.70;;;26.50;;
75851;SDS011;64500;52.632;20.656;2022-11-20T09:24:46;53.20;;;27.50;;
75851;SDS011;64500;52.632;20.656;2022-11-20T09:27:13;48.40;;;25.80;;
75851;SDS011;64500;52.632;20.656;2022-11-20T09:29:40;59.10;;;30.80;;
75851;SDS011;64500;52.632;20.656;2022-11-20T09:32:07;50.70;;;27.60;;
75851;SDS011;64500;52.632;20.656;2022-11-20T09:34:34;55.70;;;26.40;;
75851;SDS011;64500;52.632;20.656;2022-11-20T09:37:02;50.60;;;27.40;;
75851;SDS011;64500;52.632;20.656;2022-11-20T09:39:29;58.60;;;29.30;;
75851;SDS011;64500;52.632;20.656;2022-11-20T09:42:14;56.00;;;27.70;;
75851;SDS011;64500;52.632;20.656;2022-11-20T09:50:43;49.90;;;27.30;;
75851;SDS011;64500;52.632;20.656;2022-11-20T09:56:08;48.70;;;25.80;;
75851;SDS011;64500;52.632;20.656;2022-11-20T09:58:39;51.20;;;25.80;;
75851;SDS011;64500;52.632;20.656;2022-11-20T10:01:11;47.00;;;25.90;;
75851;SDS011;64500;52.632;20.656;2022-11-20T10:03:46;48.60;;;27.40;;
75851;SDS011;64500;52.632;20.656;2022-11-20T10:06:33;43.70;;;24.60;;
75851;SDS011;64500;52.632;20.656;2022-11-20T10:25:24;54.80;;;27.30;;
75851;SDS011;64500;52.632;20.656;2022-11-20T10:30:44;46.70;;;24.70;;
75851;SDS011;64500;52.632;20.656;2022-11-20T10:33:21;45.50;;;25.00;;
75851;SDS011;64500;52.632;20.656;2022-11-20T10:35:55;42.40;;;22.50;;
75851;SDS011;64500;52.632;20.656;2022-11-20T10:38:32;40.80;;;22.60;;
75851;SDS011;64500;52.632;20.656;2022-11-20T10:41:04;47.20;;;24.40;;
75851;SDS011;64500;52.632;20.656;2022-11-20T10:44:03;42.00;;;21.40;;
75851;SDS011;64500;52.632;20.656;2022-11-20T10:47:08;43.60;;;22.70;;
75851;SDS011;64500;52.632;20.656;2022-11-20T10:49:39;46.50;;;25.80;;
75851;SDS011;64500;52.632;20.656;2022-11-20T10:52:32;41.90;;;22.20;;
75851;SDS011;64500;52.632;20.656;2022-11-20T11:00:22;41.10;;;21.40;;
75851;SDS011;64500;52.632;20.656;2022-11-20T11:02:50;39.90;;;21.30;;
75851;SDS011;64500;52.632;20.656;2022-11-20T11:05:25;41.90;;;22.40;;
75851;SDS011;64500;52.632;20.656;2022-11-20T11:08:01;43.00;;;22.60;;
75851;SDS011;64500;52.632;20.656;2022-11-20T11:12:58;44.90;;;24.10;;
75851;SDS011;64500;52.632;20.656;2022-11-20T11:18:10;44.10;;;22.40;;
75851;SDS011;64500;52.632;20.656;2022-11-20T11:20:38;40.80;;;20.60;;
75851;SDS011;64500;52.632;20.656;2022-11-20T11:23:10;41.40;;;22.00;;
75851;SDS011;64500;52.632;20.656;2022-11-20T11:26:00;47.50;;;23.30;;
75851;SDS011;64500;52.632;20.656;2022-11-20T11:28:28;47.40;;;24.10;;
75851;SDS011;64500;52.632;20.656;2022-11-20T11:30:55;39.60;;;22.00;;
75851;SDS011;64500;52.632;20.656;2022-11-20T11:38:30;45.20;;;24.50;;
75851;SDS011;64500;52.632;20.656;2022-11-20T11:41:04;44.70;;;23.50;;
75851;SDS011;64500;52.632;20.656;2022-11-20T11:43:33;43.20;;;23.20;;
75851;SDS011;64500;52.632;20.656;2022-11-20T11:46:29;43.80;;;24.40;;
75851;SDS011;64500;52.632;20.656;2022-11-20T11:57:05;51.90;;;28.30;;
75851;SDS011;64500;52.632;20.656;2022-11-20T11:59:54;55.50;;;30.10;;
75851;SDS011;64500;52.632;20.656;2022-11-20T12:07:47;53.20;;;28.70;;
75851;SDS011;64500;52.632;20.656;2022-11-20T12:13:14;52.80;;;28.70;;
75851;SDS011;64500;52.632;20.656;2022-11-20T12:15:54;52.00;;;27.40;;
75851;SDS011;64500;52.632;20.656;2022-11-20T12:18:22;50.50;;;28.10;;
75851;SDS011;64500;52.632;20.656;2022-11-20T12:43:36;48.00;;;26.60;;
75851;SDS011;64500;52.632;20.656;2022-11-20T12:46:38;52.80;;;27.70;;
75851;SDS011;64500;52.632;20.656;2022-11-20T12:52:13;53.40;;;27.80;;
75851;SDS011;64500;52.632;20.656;2022-11-20T12:57:34;46.80;;;27.00;;
75851;SDS011;64500;52.632;20.656;2022-11-20T13:00:19;46.50;;;24.20;;
75851;SDS011;64500;52.632;20.656;2022-11-20T13:05:24;58.80;;;30.10;;
75851;SDS011;64500;52.632;20.656;2022-11-20T13:08:19;48.90;;;27.40;;
75851;SDS011;64500;52.632;20.656;2022-11-20T13:19:21;48.20;;;25.60;;
75851;SDS011;64500;52.632;20.656;2022-11-20T13:21:49;48.60;;;26.20;;
75851;SDS011;64500;52.632;20.656;2022-11-20T13:27:01;47.70;;;25.90;;
75851;SDS011;64500;52.632;20.656;2022-11-20T13:32:17;54.50;;;26.90;;
75851;SDS011;64500;52.632;20.656;2022-11-20T13:34:53;50.50;;;25.80;;
75851;SDS011;64500;52.632;20.656;2022-11-20T13:37:34;46.10;;;26.00;;
75851;SDS011;64500;52.632;20.656;2022-11-20T13:45:11;50.20;;;27.00;;
75851;SDS011;64500;52.632;20.656;2022-11-20T13:47:49;53.60;;;27.30;;
75851;SDS011;64500;52.632;20.656;2022-11-20T13:50:17;45.90;;;25.30;;
75851;SDS011;64500;52.632;20.656;2022-11-20T13:55:33;52.00;;;25.90;;
75851;SDS011;64500;52.632;20.656;2022-11-20T13:58:44;47.10;;;25.80;;
75851;SDS011;64500;52.632;20.656;2022-11-20T14:01:21;46.90;;;25.20;;
75851;SDS011;64500;52.632;20.656;2022-11-20T14:03:51;46.40;;;25.40;;
75851;SDS011;64500;52.632;20.656;2022-11-20T14:08:58;53.40;;;25.40;;
75851;SDS011;64500;52.632;20.656;2022-11-20T14:11:27;43.90;;;25.10;;
75851;SDS011;64500;52.632;20.656;2022-11-20T14:13:57;43.60;;;21.20;;
75851;SDS011;64500;52.632;20.656;2022-11-20T14:16:27;46.10;;;24.40;;
75851;SDS011;64500;52.632;20.656;2022-11-20T14:18:55;40.40;;;21.40;;
75851;SDS011;64500;52.632;20.656;2022-11-20T14:21:25;49.90;;;25.20;;
75851;SDS011;64500;52.632;20.656;2022-11-20T14:23:54;47.20;;;25.10;;
75851;SDS011;64500;52.632;20.656;2022-11-20T14:26:32;44.50;;;25.00;;
75851;SDS011;64500;52.632;20.656;2022-11-20T14:29:00;50.30;;;26.90;;
75851;SDS011;64500;52.632;20.656;2022-11-20T14:31:28;45.60;;;25.70;;
75851;SDS011;64500;52.632;20.656;2022-11-20T14:33:55;46.50;;;25.20;;
75851;SDS011;64500;52.632;20.656;2022-11-20T14:36:23;53.60;;;28.10;;
75851;SDS011;64500;52.632;20.656;2022-11-20T14:38:51;53.50;;;27.70;;
75851;SDS011;64500;52.632;20.656;2022-11-20T14:41:23;51.20;;;26.90;;
75851;SDS011;64500;52.632;20.656;2022-11-20T14:43:56;51.70;;;27.10;;
75851;SDS011;64500;52.632;20.656;2022-11-20T14:46:25;48.60;;;26.60;;
75851;SDS011;64500;52.632;20.656;2022-11-20T14:48:55;50.10;;;26.70;;
75851;SDS011;64500;52.632;20.656;2022-11-20T14:54:15;49.20;;;24.80;;
75851;SDS011;64500;52.632;20.656;2022-11-20T14:59:50;46.40;;;25.30;;
75851;SDS011;64500;52.632;20.656;2022-11-20T15:02:17;48.00;;;26.50;;
75851;SDS011;64500;52.632;20.656;2022-11-20T15:04:48;48.20;;;25.40;;
75851;SDS011;64500;52.632;20.656;2022-11-20T15:07:51;50.30;;;25.90;;
75851;SDS011;64500;52.632;20.656;2022-11-20T15:10:21;48.10;;;26.90;;
75851;SDS011;64500;52.632;20.656;2022-11-20T15:12:51;48.40;;;26.70;;
75851;SDS011;64500;52.632;20.656;2022-11-20T15:15:30;67.40;;;29.20;;
75851;SDS011;64500;52.632;20.656;2022-11-20T15:18:28;46.70;;;25.50;;
75851;SDS011;64500;52.632;20.656;2022-11-20T15:20:57;48.00;;;27.10;;
75851;SDS011;64500;52.632;20.656;2022-11-20T15:23:28;49.30;;;25.90;;
75851;SDS011;64500;52.632;20.656;2022-11-20T15:25:56;50.90;;;26.80;;
75851;SDS011;64500;52.632;20.656;2022-11-20T15:28:29;53.30;;;27.60;;
75851;SDS011;64500;52.632;20.656;2022-11-20T15:30:59;50.40;;;27.30;;
75851;SDS011;64500;52.632;20.656;2022-11-20T15:33:27;51.40;;;26.70;;
75851;SDS011;64500;52.632;20.656;2022-11-20T15:35:55;49.50;;;25.80;;
75851;SDS011;64500;52.632;20.656;2022-11-20T15:38:23;49.90;;;26.30;;
75851;SDS011;64500;52.632;20.656;2022-11-20T15:40:51;51.40;;;27.00;;
75851;SDS011;64500;52.632;20.656;2022-11-20T15:43:18;47.50;;;26.30;;
75851;SDS011;64500;52.632;20.656;2022-11-20T15:45:49;50.70;;;26.60;;
75851;SDS011;64500;52.632;20.656;2022-11-20T15:48:20;49.80;;;26.50;;
75851;SDS011;64500;52.632;20.656;2022-11-20T15:53:40;50.00;;;25.40;;
75851;SDS011;64500;52.632;20.656;2022-11-20T15:56:09;51.30;;;27.60;;
75851;SDS011;64500;52.632;20.656;2022-11-20T15:58:39;55.50;;;28.50;;
75851;SDS011;64500;52.632;20.656;2022-11-20T16:01:10;59.30;;;29.40;;
75851;SDS011;64500;52.632;20.656;2022-11-20T16:03:39;57.10;;;29.50;;
75851;SDS011;64500;52.632;20.656;2022-11-20T16:06:07;57.90;;;30.30;;
75851;SDS011;64500;52.632;20.656;2022-11-20T16:08:34;58.00;;;29.60;;
75851;SDS011;64500;52.632;20.656;2022-11-20T16:11:01;61.20;;;31.60;;
75851;SDS011;64500;52.632;20.656;2022-11-20T16:13:30;64.90;;;33.50;;
75851;SDS011;64500;52.632;20.656;2022-11-20T16:16:21;66.80;;;33.50;;
75851;SDS011;64500;52.632;20.656;2022-11-20T16:21:17;70.10;;;33.40;;
75851;SDS011;64500;52.632;20.656;2022-11-20T16:23:44;73.20;;;31.70;;
75851;SDS011;64500;52.632;20.656;2022-11-20T16:26:12;74.30;;;37.10;;
75851;SDS011;64500;52.632;20.656;2022-11-20T16:28:41;70.10;;;32.70;;
75851;SDS011;64500;52.632;20.656;2022-11-20T16:31:13;75.40;;;37.40;;
75851;SDS011;64500;52.632;20.656;2022-11-20T16:33:42;74.70;;;36.90;;
75851;SDS011;64500;52.632;20.656;2022-11-20T16:36:15;72.80;;;35.30;;
75851;SDS011;64500;52.632;20.656;2022-11-20T16:38:42;66.20;;;33.10;;
75851;SDS011;64500;52.632;20.656;2022-11-20T16:41:09;69.70;;;34.10;;
75851;SDS011;64500;52.632;20.656;2022-11-20T16:43:55;78.00;;;37.30;;
75851;SDS011;64500;52.632;20.656;2022-11-20T16:46:25;68.40;;;34.30;;